Peace Dale, Rhode Island
Current Conditions -  °F | °C
As of 8:53 AM on Sunday 23 Nov 2014 (Local Time) from KUUU Reporting Station
Overcast Overcast  
Wind Chill: 45°   Ceiling: 7000
Heat Index: 48°   Visibility: 10mi
Dew Point: 31°   Wind: 6mph
Humidity: 52%   Direction: NA
Pressure: 30.17"   Gusts: NA
Location:  41.45°N, 71.5°W
Report Text: KUUU 231353Z AUTO VRB05KT 10SM OVC070 09/M01 A3017 RMK AO2 RAB31E40 SLP217 P0000 T00891006 $
Loading
Personal Weather Stations






























Interactive Weather Map New forecast layout! Learn more

10-Day Weather Forecast

Advertisements
Track Severe Weather on mobile